createdAt,value
2018-02-15T00:01:34.481Z,9.83
2018-02-15T00:04:02.973Z,9.40
2018-02-15T00:06:31.473Z,9.40
2018-02-15T00:08:59.949Z,10.30
2018-02-15T00:11:28.457Z,9.40
2018-02-15T00:13:56.950Z,9.87
2018-02-15T00:16:25.393Z,9.63
2018-02-15T00:18:53.929Z,9.77
2018-02-15T00:21:22.408Z,9.37
2018-02-15T00:23:50.894Z,8.60
2018-02-15T00:26:19.382Z,9.80
2018-02-15T00:28:47.900Z,9.30
2018-02-15T00:31:16.426Z,10.13
2018-02-15T00:33:44.921Z,8.90
2018-02-15T00:36:13.383Z,9.33
2018-02-15T00:38:41.912Z,8.90
2018-02-15T00:41:10.454Z,8.83
2018-02-15T00:43:38.952Z,8.57
2018-02-15T00:46:07.447Z,9.77
2018-02-15T00:48:35.881Z,9.47
2018-02-15T00:51:04.371Z,8.93
2018-02-15T00:53:32.826Z,9.67
2018-02-15T00:56:01.390Z,9.80
2018-02-15T00:58:29.885Z,9.67
2018-02-15T01:00:58.373Z,9.47
2018-02-15T01:03:26.821Z,8.03
2018-02-15T01:05:55.314Z,8.60
2018-02-15T01:08:23.806Z,8.80
2018-02-15T01:10:52.271Z,9.57
2018-02-15T01:13:20.789Z,9.60
2018-02-15T01:15:49.241Z,9.50
2018-02-15T01:18:17.730Z,9.97
2018-02-15T01:20:46.223Z,9.87
2018-02-15T01:23:14.730Z,9.50
2018-02-15T01:25:43.194Z,10.53
2018-02-15T01:28:11.655Z,10.43
2018-02-15T01:30:40.159Z,10.40
2018-02-15T01:33:08.638Z,10.53
2018-02-15T01:35:37.093Z,10.77
2018-02-15T01:38:05.589Z,11.63
2018-02-15T01:40:34.049Z,11.07
2018-02-15T01:43:02.571Z,10.73
2018-02-15T01:45:31.034Z,10.43
2018-02-15T01:47:59.508Z,10.10
2018-02-15T01:50:28.042Z,11.23
2018-02-15T01:52:57.197Z,10.40
2018-02-15T01:55:25.683Z,10.67
2018-02-15T01:57:54.174Z,11.07
2018-02-15T02:00:22.665Z,10.63
2018-02-15T02:02:51.202Z,10.90
2018-02-15T02:05:19.725Z,10.20
2018-02-15T02:07:48.173Z,10.90
2018-02-15T02:10:16.634Z,10.20
2018-02-15T02:12:45.124Z,10.43
2018-02-15T02:15:13.594Z,10.70
2018-02-15T02:17:42.126Z,10.17
2018-02-15T02:20:10.647Z,10.50
2018-02-15T02:22:39.247Z,10.40
2018-02-15T02:25:07.701Z,10.53
2018-02-15T02:27:36.158Z,10.27
2018-02-15T02:30:04.651Z,9.57
2018-02-15T02:32:33.149Z,10.00
2018-02-15T02:35:01.654Z,9.77
2018-02-15T02:37:30.102Z,8.93
2018-02-15T02:39:58.567Z,8.93
2018-02-15T02:42:27.063Z,9.43
2018-02-15T02:44:55.609Z,9.70
2018-02-15T02:47:24.106Z,10.13
2018-02-15T02:49:52.613Z,8.53
2018-02-15T02:52:21.104Z,9.67
2018-02-15T02:54:49.597Z,9.93
2018-02-15T02:57:18.090Z,9.57
2018-02-15T02:59:46.582Z,10.23
2018-02-15T03:02:15.148Z,9.47
2018-02-15T03:04:43.638Z,10.50
2018-02-15T03:07:12.098Z,10.70
2018-02-15T03:09:40.589Z,10.13
2018-02-15T03:12:09.049Z,10.63
2018-02-15T03:14:37.562Z,10.60
2018-02-15T03:17:06.040Z,10.53
2018-02-15T03:19:34.509Z,9.93
2018-02-15T03:22:03.009Z,10.30
2018-02-15T03:24:31.539Z,10.43
2018-02-15T03:26:59.990Z,9.30
2018-02-15T03:29:28.462Z,9.23
2018-02-15T03:31:56.959Z,9.83
2018-02-15T03:34:25.478Z,9.83
2018-02-15T03:36:53.947Z,10.50
2018-02-15T03:39:22.429Z,9.53
2018-02-15T03:41:50.922Z,10.07
2018-02-15T03:44:19.381Z,10.10
2018-02-15T03:46:47.859Z,9.80
2018-02-15T03:49:16.365Z,10.43
2018-02-15T03:51:44.865Z,10.37
2018-02-15T03:54:13.326Z,10.33
2018-02-15T03:56:41.825Z,10.73
2018-02-15T03:59:10.333Z,10.43
2018-02-15T04:01:38.829Z,10.10
2018-02-15T04:04:07.350Z,9.23
2018-02-15T04:06:35.845Z,9.60
2018-02-15T04:09:04.338Z,11.40
2018-02-15T04:11:32.873Z,9.70
2018-02-15T04:14:01.380Z,10.90
2018-02-15T04:16:29.889Z,10.17
2018-02-15T04:18:58.353Z,10.23
2018-02-15T04:21:26.845Z,10.23
2018-02-15T04:23:55.329Z,9.97
2018-02-15T04:26:23.819Z,10.40
2018-02-15T04:28:52.309Z,11.13
2018-02-15T04:31:20.774Z,10.10
2018-02-15T04:33:49.309Z,10.53
2018-02-15T04:36:17.769Z,10.47
2018-02-15T04:38:46.268Z,11.23
2018-02-15T04:41:14.717Z,11.53
2018-02-15T04:43:43.224Z,11.13
2018-02-15T04:46:11.679Z,10.53
2018-02-15T04:48:40.178Z,10.33
2018-02-15T04:51:08.682Z,10.40
2018-02-15T04:53:37.174Z,10.70
2018-02-15T04:56:05.643Z,10.70
2018-02-15T04:58:34.137Z,10.33
2018-02-15T05:01:02.596Z,10.03
2018-02-15T05:03:31.090Z,10.10
2018-02-15T05:05:59.558Z,10.63
2018-02-15T05:08:28.070Z,10.87
2018-02-15T05:10:56.542Z,10.20
2018-02-15T05:13:25.038Z,10.40
2018-02-15T05:15:53.543Z,9.90
2018-02-15T05:18:21.992Z,9.73
2018-02-15T05:20:50.493Z,10.20
2018-02-15T05:23:18.946Z,9.63
2018-02-15T05:25:47.437Z,9.73
2018-02-15T05:28:15.916Z,10.60
2018-02-15T05:30:44.399Z,10.70
2018-02-15T05:33:12.901Z,10.57
2018-02-15T05:35:41.405Z,10.73
2018-02-15T05:38:09.917Z,10.93
2018-02-15T05:40:38.393Z,10.73
2018-02-15T05:43:06.924Z,11.57
2018-02-15T05:45:35.421Z,10.90
2018-02-15T05:48:03.916Z,11.57
2018-02-15T05:50:32.416Z,10.70
2018-02-15T05:53:00.873Z,10.77
2018-02-15T05:55:29.385Z,10.40
2018-02-15T05:57:57.842Z,9.60
2018-02-15T06:00:26.365Z,11.30
2018-02-15T06:02:54.839Z,11.73
2018-02-15T06:05:23.354Z,11.20
2018-02-15T06:07:51.813Z,9.97
2018-02-15T06:10:20.281Z,10.73
2018-02-15T06:12:48.785Z,12.40
2018-02-15T06:15:17.296Z,12.83
2018-02-15T06:17:45.819Z,11.73
2018-02-15T06:20:14.458Z,11.50
2018-02-15T06:22:42.976Z,10.97
2018-02-15T06:25:11.463Z,11.43
2018-02-15T06:27:41.057Z,11.93
2018-02-15T06:30:09.557Z,10.93
2018-02-15T06:32:38.022Z,11.33
2018-02-15T06:35:06.533Z,9.70
2018-02-15T06:37:34.998Z,10.63
2018-02-15T06:40:03.492Z,10.93
2018-02-15T06:42:32.006Z,12.10
2018-02-15T06:45:00.474Z,11.30
2018-02-15T06:47:28.995Z,11.13
2018-02-15T06:49:57.453Z,9.93
2018-02-15T06:52:25.984Z,10.67
2018-02-15T06:54:54.458Z,10.30
2018-02-15T06:57:22.964Z,10.40
2018-02-15T06:59:51.469Z,9.73
2018-02-15T07:02:19.946Z,9.70
2018-02-15T07:04:48.490Z,10.43
2018-02-15T07:07:17.003Z,9.77
2018-02-15T07:09:45.501Z,9.70
2018-02-15T07:12:14.010Z,10.03
2018-02-15T07:14:42.473Z,9.43
2018-02-15T07:17:10.961Z,9.33
2018-02-15T07:19:39.469Z,10.43
2018-02-15T07:22:07.949Z,10.03
2018-02-15T07:24:36.447Z,10.23
2018-02-15T07:27:04.938Z,9.30
2018-02-15T07:29:33.413Z,10.03
2018-02-15T07:32:01.898Z,9.73
2018-02-15T07:34:30.385Z,9.97
2018-02-15T07:36:58.846Z,9.53
2018-02-15T07:39:27.412Z,10.70
2018-02-15T07:41:55.923Z,9.73
2018-02-15T07:44:24.406Z,9.60
2018-02-15T07:46:52.927Z,10.57
2018-02-15T07:49:21.409Z,10.40
2018-02-15T07:51:49.905Z,10.07
2018-02-15T07:54:18.434Z,10.23
2018-02-15T07:56:46.986Z,9.53
2018-02-15T07:59:15.465Z,10.13
2018-02-15T08:01:43.962Z,9.33
2018-02-15T08:04:12.465Z,9.83
2018-02-15T08:06:41.824Z,9.67
2018-02-15T08:09:10.321Z,10.20
2018-02-15T08:11:38.773Z,9.53
2018-02-15T08:14:07.282Z,10.17
2018-02-15T08:16:35.761Z,9.80
2018-02-15T08:19:04.219Z,9.93
2018-02-15T08:21:32.706Z,9.53
2018-02-15T08:24:01.204Z,9.97
2018-02-15T08:26:29.669Z,12.07
2018-02-15T08:28:58.174Z,9.67
2018-02-15T08:31:26.634Z,10.00
2018-02-15T08:33:55.098Z,10.17
2018-02-15T08:36:23.621Z,9.40
2018-02-15T08:38:52.078Z,8.77
2018-02-15T08:41:20.588Z,10.30
2018-02-15T08:43:49.089Z,10.43
2018-02-15T08:46:17.576Z,11.23
2018-02-15T08:48:46.037Z,9.80
2018-02-15T08:51:14.541Z,10.53
2018-02-15T08:53:43.000Z,10.77
2018-02-15T08:56:11.489Z,10.20
2018-02-15T08:58:39.963Z,11.60
2018-02-15T09:01:08.465Z,11.37
2018-02-15T09:03:36.997Z,11.70
2018-02-15T09:06:05.465Z,11.07
2018-02-15T09:08:34.046Z,11.13
2018-02-15T09:11:02.536Z,11.13
2018-02-15T09:13:31.038Z,10.50
2018-02-15T09:15:59.538Z,11.70
2018-02-15T09:18:28.023Z,11.03
2018-02-15T09:20:56.526Z,11.93
2018-02-15T09:23:24.996Z,11.43
2018-02-15T09:25:53.513Z,10.30
2018-02-15T09:28:21.969Z,11.03
2018-02-15T09:30:50.468Z,10.63
2018-02-15T09:33:18.945Z,10.80
2018-02-15T09:35:47.446Z,10.83
2018-02-15T09:38:15.905Z,12.30
2018-02-15T09:40:44.425Z,11.13
2018-02-15T09:43:12.889Z,10.63
2018-02-15T09:45:41.374Z,10.83
2018-02-15T09:48:09.860Z,11.67
2018-02-15T09:50:38.323Z,11.93
2018-02-15T09:53:06.825Z,12.10
2018-02-15T09:55:35.373Z,11.70
2018-02-15T09:58:03.913Z,11.87
2018-02-15T10:00:32.473Z,17.63
2018-02-15T10:03:00.930Z,12.07
2018-02-15T10:05:29.760Z,11.20
2018-02-15T10:07:58.220Z,12.43
2018-02-15T10:10:26.720Z,11.50
2018-02-15T10:12:55.217Z,11.13
2018-02-15T10:15:23.658Z,11.33
2018-02-15T10:17:52.154Z,12.67
2018-02-15T10:20:20.671Z,12.93
2018-02-15T10:22:49.235Z,11.00
2018-02-15T10:25:17.710Z,10.97
2018-02-15T10:27:46.249Z,11.30
2018-02-15T10:30:14.714Z,11.73
2018-02-15T10:32:43.262Z,11.33
2018-02-15T10:35:11.722Z,11.30
2018-02-15T10:37:40.253Z,10.93
2018-02-15T10:40:08.723Z,11.50
2018-02-15T10:42:37.194Z,10.57
2018-02-15T10:45:05.708Z,12.43
2018-02-15T10:47:34.185Z,12.13
2018-02-15T10:50:02.725Z,10.33
2018-02-15T10:52:31.230Z,10.23
2018-02-15T10:54:59.697Z,10.90
2018-02-15T10:57:28.214Z,11.30
2018-02-15T10:59:56.716Z,11.23
2018-02-15T11:02:25.215Z,10.20
2018-02-15T11:04:59.215Z,11.07
2018-02-15T11:07:27.726Z,11.30
2018-02-15T11:09:56.225Z,11.10
2018-02-15T11:12:24.734Z,10.73
2018-02-15T11:14:53.241Z,10.60
2018-02-15T11:17:21.750Z,11.80
2018-02-15T11:19:50.214Z,12.17
2018-02-15T11:22:18.718Z,12.03
2018-02-15T11:24:47.227Z,12.00
2018-02-15T11:27:15.738Z,11.53
2018-02-15T11:29:44.289Z,12.50
2018-02-15T11:32:12.807Z,12.07
2018-02-15T11:34:41.365Z,11.57
2018-02-15T11:37:09.838Z,12.00
2018-02-15T11:39:38.363Z,10.23
2018-02-15T11:42:06.830Z,8.80
2018-02-15T11:44:35.317Z,9.53
2018-02-15T11:47:03.779Z,10.20
2018-02-15T11:49:32.274Z,9.60
2018-02-15T11:52:00.714Z,8.90
2018-02-15T11:54:29.205Z,9.30
2018-02-15T11:56:57.658Z,9.90
2018-02-15T11:59:26.209Z,9.30
2018-02-15T12:01:54.712Z,9.87
2018-02-15T12:04:23.192Z,9.63
2018-02-15T12:06:51.728Z,11.60
2018-02-15T12:09:20.203Z,11.00
2018-02-15T12:11:48.739Z,11.87
2018-02-15T12:14:17.262Z,10.73
2018-02-15T12:16:45.735Z,11.37
2018-02-15T12:19:14.246Z,10.40
2018-02-15T12:21:42.765Z,9.63
2018-02-15T12:24:11.325Z,9.00
2018-02-15T12:26:39.826Z,10.27
2018-02-15T12:29:08.312Z,10.30
2018-02-15T12:31:36.813Z,9.47
2018-02-15T12:34:05.298Z,10.43
2018-02-15T12:36:33.801Z,10.53
2018-02-15T12:39:02.339Z,9.83
2018-02-15T12:41:30.849Z,10.23
2018-02-15T12:43:59.404Z,11.13
2018-02-15T12:46:27.875Z,10.70
2018-02-15T12:48:56.331Z,9.63
2018-02-15T12:51:24.853Z,10.00
2018-02-15T12:53:53.313Z,11.57
2018-02-15T12:56:21.815Z,9.77
2018-02-15T12:58:50.277Z,9.97
2018-02-15T13:01:18.753Z,9.37
2018-02-15T13:03:47.274Z,10.03
2018-02-15T13:06:15.865Z,10.00
2018-02-15T13:08:44.379Z,9.87
2018-02-15T13:11:12.853Z,10.43
2018-02-15T13:13:41.382Z,9.23
2018-02-15T13:16:21.462Z,10.30
2018-02-15T13:21:50.909Z,11.50
2018-02-15T13:24:19.456Z,10.40
2018-02-15T13:26:48.035Z,9.73
2018-02-15T13:29:16.717Z,10.40
2018-02-15T13:31:45.193Z,10.20
2018-02-15T13:34:13.793Z,10.57
2018-02-15T13:36:42.284Z,10.37
2018-02-15T13:39:10.849Z,10.53
2018-02-15T13:41:39.435Z,11.00
2018-02-15T13:44:08.040Z,10.47
2018-02-15T13:46:36.662Z,11.13
2018-02-15T13:49:05.174Z,11.10
2018-02-15T13:51:33.647Z,10.40
2018-02-15T13:54:02.174Z,11.23
2018-02-15T13:56:30.645Z,12.23
2018-02-15T13:58:59.260Z,11.80
2018-02-15T14:01:27.743Z,10.33
2018-02-15T14:03:56.240Z,10.60
2018-02-15T14:06:24.725Z,10.73
2018-02-15T14:08:53.230Z,9.77
2018-02-15T14:11:21.750Z,10.23
2018-02-15T14:13:50.258Z,10.80
2018-02-15T14:16:18.734Z,10.80
2018-02-15T14:18:47.258Z,12.20
2018-02-15T14:21:15.729Z,11.70
2018-02-15T14:23:44.195Z,10.73
2018-02-15T14:26:12.685Z,10.50
2018-02-15T14:28:41.178Z,12.70
2018-02-15T14:31:09.653Z,10.77
2018-02-15T14:33:38.157Z,9.80
2018-02-15T14:36:06.668Z,11.43
2018-02-15T14:38:35.186Z,9.63
2018-02-15T14:41:03.709Z,11.47
2018-02-15T14:43:32.171Z,10.47
2018-02-15T14:46:00.682Z,10.83
2018-02-15T14:48:29.216Z,11.17
2018-02-15T14:50:57.739Z,10.23
2018-02-15T14:53:26.250Z,12.20
2018-02-15T14:55:54.754Z,11.90
2018-02-15T14:58:23.261Z,12.87
2018-02-15T15:00:51.731Z,11.97
2018-02-15T15:03:20.229Z,11.87
2018-02-15T15:05:48.689Z,12.20
2018-02-15T15:08:17.198Z,13.30
2018-02-15T15:10:45.735Z,12.00
2018-02-15T15:13:14.206Z,13.37
2018-02-15T15:15:42.724Z,11.23
2018-02-15T15:18:11.210Z,11.63
2018-02-15T15:20:39.739Z,10.80
2018-02-15T15:23:08.218Z,11.50
2018-02-15T15:25:36.730Z,12.30
2018-02-15T15:28:05.192Z,11.77
2018-02-15T15:30:33.727Z,12.00
2018-02-15T15:33:02.208Z,13.00
2018-02-15T15:35:31.105Z,13.43
2018-02-15T15:37:59.606Z,13.27
2018-02-15T15:40:28.070Z,15.20
2018-02-15T15:42:56.570Z,14.40
2018-02-15T15:45:25.090Z,13.93
2018-02-15T15:47:53.598Z,13.77
2018-02-15T15:50:22.061Z,13.43
2018-02-15T15:52:50.561Z,14.47
2018-02-15T15:55:19.026Z,13.80
2018-02-15T15:57:47.563Z,15.10
2018-02-15T16:00:16.070Z,15.20
2018-02-15T16:02:44.547Z,13.63
2018-02-15T16:05:12.991Z,15.73
2018-02-15T16:07:41.493Z,15.57
2018-02-15T16:10:09.950Z,15.63
2018-02-15T16:12:38.421Z,16.80
2018-02-15T16:15:06.949Z,16.83
2018-02-15T16:17:35.422Z,15.80
2018-02-15T16:20:03.953Z,16.73
2018-02-15T16:22:32.440Z,17.43
2018-02-15T16:25:00.945Z,18.77
2018-02-15T16:27:29.456Z,16.73
2018-02-15T16:29:57.960Z,17.53
2018-02-15T16:32:26.473Z,17.77
2018-02-15T16:34:54.942Z,17.67
2018-02-15T16:37:23.442Z,17.67
2018-02-15T16:39:51.914Z,16.07
2018-02-15T16:42:20.430Z,18.20
2018-02-15T16:44:48.878Z,16.60
2018-02-15T16:47:17.348Z,16.27
2018-02-15T16:49:45.849Z,16.93
2018-02-15T16:52:14.323Z,16.70
2018-02-15T16:54:42.829Z,16.43
2018-02-15T16:57:11.318Z,17.17
2018-02-15T16:59:39.818Z,17.13
2018-02-15T17:02:08.316Z,16.70
2018-02-15T17:04:36.781Z,16.87
2018-02-15T17:07:05.299Z,18.53
2018-02-15T17:09:33.779Z,17.93
2018-02-15T17:12:02.288Z,24.50
2018-02-15T17:14:30.786Z,24.53
2018-02-15T17:16:59.256Z,26.27
2018-02-15T17:19:27.764Z,27.40
2018-02-15T17:21:56.265Z,26.37
2018-02-15T17:24:24.761Z,24.97
2018-02-15T17:26:53.270Z,25.70
2018-02-15T17:29:21.730Z,25.03
2018-02-15T17:31:50.252Z,24.70
2018-02-15T17:34:18.711Z,25.70
2018-02-15T17:36:47.169Z,25.30
2018-02-15T17:39:15.677Z,26.03
2018-02-15T17:41:44.192Z,24.73
2018-02-15T17:44:12.663Z,25.33
2018-02-15T17:46:41.158Z,24.60
2018-02-15T17:49:09.632Z,25.60
2018-02-15T17:51:38.148Z,26.53
2018-02-15T17:54:06.657Z,28.37
2018-02-15T17:56:35.170Z,24.30
2018-02-15T17:59:03.666Z,24.27
2018-02-15T18:01:32.205Z,25.67
2018-02-15T18:04:00.709Z,24.00
2018-02-15T18:06:29.214Z,24.33
2018-02-15T18:08:57.767Z,22.30
2018-02-15T18:11:26.267Z,21.70
2018-02-15T18:13:54.766Z,20.33
2018-02-15T18:16:23.272Z,22.13
2018-02-15T18:18:51.741Z,22.20
2018-02-15T18:21:20.235Z,22.97
2018-02-15T18:23:48.733Z,22.13
2018-02-15T18:26:17.257Z,22.80
2018-02-15T18:28:45.730Z,23.77
2018-02-15T18:31:14.229Z,24.07
2018-02-15T18:33:42.695Z,22.97
2018-02-15T18:36:11.197Z,23.80
2018-02-15T18:38:39.657Z,22.37
2018-02-15T18:41:08.176Z,21.73
2018-02-15T18:43:36.673Z,22.47
2018-02-15T18:46:05.173Z,21.97
2018-02-15T18:48:33.650Z,21.37
2018-02-15T18:51:02.173Z,20.80
2018-02-15T18:53:30.641Z,19.63
2018-02-15T18:55:59.149Z,20.57
2018-02-15T18:58:27.642Z,19.70
2018-02-15T19:00:56.101Z,19.57
2018-02-15T19:03:24.602Z,20.00
2018-02-15T19:05:53.075Z,19.33
2018-02-15T19:08:21.569Z,19.43
2018-02-15T19:10:50.069Z,19.80
2018-02-15T19:13:18.578Z,19.80
2018-02-15T19:15:47.077Z,20.10
2018-02-15T19:18:15.565Z,19.80
2018-02-15T19:20:44.082Z,20.93
2018-02-15T19:23:12.546Z,19.60
2018-02-15T19:25:41.046Z,19.73
2018-02-15T19:28:09.509Z,19.57
2018-02-15T19:30:38.006Z,19.17
2018-02-15T19:33:06.505Z,18.70
2018-02-15T19:35:35.020Z,19.73
2018-02-15T19:38:03.494Z,19.03
2018-02-15T19:40:31.994Z,19.43
2018-02-15T19:43:00.483Z,18.63
2018-02-15T19:45:28.986Z,20.27
2018-02-15T19:47:57.804Z,20.17
2018-02-15T19:50:26.310Z,18.93
2018-02-15T19:52:54.765Z,18.87
2018-02-15T19:55:23.283Z,18.63
2018-02-15T19:57:51.770Z,18.47
2018-02-15T20:00:20.250Z,17.43
2018-02-15T20:02:48.794Z,17.97
2018-02-15T20:05:17.286Z,18.10
2018-02-15T20:07:45.919Z,18.33
2018-02-15T20:10:14.293Z,18.20
2018-02-15T20:12:42.797Z,17.50
2018-02-15T20:15:11.258Z,17.30
2018-02-15T20:17:39.755Z,16.67
2018-02-15T20:20:13.827Z,16.90
2018-02-15T20:22:42.325Z,17.50
2018-02-15T20:25:10.789Z,18.90
2018-02-15T20:27:44.928Z,19.80
2018-02-15T20:30:13.395Z,19.73
2018-02-15T20:32:41.866Z,18.87
2018-02-15T20:35:10.369Z,20.70
2018-02-15T20:37:44.325Z,20.40
2018-02-15T20:40:18.332Z,20.03
2018-02-15T20:42:46.797Z,20.27
2018-02-15T20:45:15.301Z,21.50
2018-02-15T20:47:43.781Z,21.43
2018-02-15T20:50:17.677Z,21.60
2018-02-15T20:52:51.581Z,20.97
2018-02-15T20:55:25.649Z,21.10
2018-02-15T20:57:54.180Z,20.70
2018-02-15T21:00:22.677Z,19.77
2018-02-15T21:02:51.182Z,21.40
2018-02-15T21:05:19.699Z,21.80
2018-02-15T21:07:48.177Z,22.93
2018-02-15T21:10:16.638Z,22.37
2018-02-15T21:12:45.141Z,22.30
2018-02-15T21:15:13.688Z,22.80
2018-02-15T21:17:42.176Z,21.53
2018-02-15T21:20:10.669Z,22.60
2018-02-15T21:22:39.150Z,22.07
2018-02-15T21:25:07.650Z,22.50
2018-02-15T21:27:36.141Z,23.07
2018-02-15T21:30:04.646Z,21.80
2018-02-15T21:32:33.168Z,24.00
2018-02-15T21:35:01.669Z,22.57
2018-02-15T21:37:30.181Z,24.77
2018-02-15T21:39:58.672Z,23.60
2018-02-15T21:42:27.181Z,22.87
2018-02-15T21:44:55.653Z,22.53
2018-02-15T21:47:24.157Z,21.77
2018-02-15T21:49:52.662Z,21.47
2018-02-15T21:52:21.127Z,21.50
2018-02-15T21:54:49.642Z,22.87
2018-02-15T21:57:18.128Z,22.23
2018-02-15T21:59:46.643Z,22.07
2018-02-15T22:02:15.110Z,23.63
2018-02-15T22:04:43.635Z,22.93
2018-02-15T22:07:12.136Z,22.77
2018-02-15T22:09:40.596Z,22.13
2018-02-15T22:12:09.109Z,21.83
2018-02-15T22:14:37.574Z,22.47
2018-02-15T22:17:06.074Z,22.90
2018-02-15T22:19:34.574Z,23.17
2018-02-15T22:22:03.069Z,22.03
2018-02-15T22:24:31.541Z,23.00
2018-02-15T22:27:00.046Z,22.00
2018-02-15T22:29:28.537Z,24.00
2018-02-15T22:31:57.037Z,23.37
2018-02-15T22:34:25.505Z,22.20
2018-02-15T22:36:54.001Z,23.03
2018-02-15T22:39:22.477Z,24.27
2018-02-15T22:41:50.977Z,25.00
2018-02-15T22:44:19.478Z,25.23
2018-02-15T22:46:47.981Z,25.37
2018-02-15T22:49:16.445Z,25.43
2018-02-15T22:51:44.922Z,24.63
2018-02-15T22:54:13.421Z,24.63
2018-02-15T22:56:41.962Z,25.10
2018-02-15T22:59:10.449Z,24.80
2018-02-15T23:01:38.946Z,24.27
2018-02-15T23:04:07.405Z,24.70
2018-02-15T23:06:35.890Z,24.43
2018-02-15T23:09:04.454Z,25.10
2018-02-15T23:11:32.967Z,24.83
2018-02-15T23:14:01.438Z,22.90
2018-02-15T23:16:29.994Z,22.87
2018-02-15T23:18:58.470Z,23.77
2018-02-15T23:21:26.924Z,24.23
2018-02-15T23:23:55.422Z,22.63
2018-02-15T23:26:23.885Z,22.57
2018-02-15T23:28:52.414Z,22.77
2018-02-15T23:31:20.930Z,23.20
2018-02-15T23:33:49.421Z,22.60
2018-02-15T23:36:17.915Z,22.30
2018-02-15T23:38:46.424Z,22.50
2018-02-15T23:41:14.881Z,22.53
2018-02-15T23:43:43.383Z,22.33
2018-02-15T23:46:11.846Z,23.10
2018-02-15T23:48:40.381Z,22.67
2018-02-15T23:51:08.868Z,24.03
2018-02-15T23:53:37.378Z,22.70
2018-02-15T23:56:05.853Z,22.47
2018-02-15T23:58:34.366Z,22.67
